Time,TemperatureF,DewpointF,PressureIn,WindDirection,WindDirectionDegrees,WindSpeedMPH,WindSpeedGustMPH,Humidity,HourlyPrecipIn,Conditions,Clouds,dailyrainin,SolarRadiationWatts/m^2,SoftwareType,DateUTC
2013-07-12 00:11:00,67.0,58.0,-100.00,South,169,3.0,5.0,74,0.00,,,0.00,0.000000,,2013-07-12 05:11:00,
2013-07-12 00:22:00,67.0,58.0,-100.00,South,169,3.0,5.0,74,0.00,,,0.00,0.000000,,2013-07-12 05:22:00,
2013-07-12 00:32:00,67.0,58.0,-100.00,South,169,3.0,5.0,74,0.00,,,0.00,0.000000,,2013-07-12 05:32:00,
2013-07-12 00:43:00,67.0,58.0,-100.00,South,169,3.0,5.0,74,0.00,,,0.00,0.000000,,2013-07-12 05:43:00,
2013-07-12 01:11:00,65.0,57.0,-100.00,South,172,3.0,4.0,75,0.00,,,0.00,0.000000,,2013-07-12 06:11:00,
2013-07-12 01:22:00,65.0,57.0,-100.00,South,172,3.0,4.0,75,0.00,,,0.00,0.000000,,2013-07-12 06:22:00,
2013-07-12 01:33:00,65.0,57.0,-100.00,South,172,3.0,4.0,75,0.00,,,0.00,0.000000,,2013-07-12 06:33:00,
2013-07-12 01:42:00,65.0,57.0,-100.00,South,172,3.0,4.0,75,0.00,,,0.00,0.000000,,2013-07-12 06:42:00,
2013-07-12 02:12:00,65.0,57.0,-100.00,SSE,158,4.0,7.0,76,0.00,,,0.00,0.000000,,2013-07-12 07:12:00,
2013-07-12 02:22:00,65.0,57.0,-100.00,SSE,158,4.0,7.0,76,0.00,,,0.00,0.000000,,2013-07-12 07:22:00,
2013-07-12 02:32:00,65.0,57.0,-100.00,SSE,158,4.0,7.0,76,0.00,,,0.00,0.000000,,2013-07-12 07:32:00,
2013-07-12 02:43:00,65.0,57.0,-100.00,SSE,158,4.0,7.0,76,0.00,,,0.00,0.000000,,2013-07-12 07:43:00,
2013-07-12 04:12:00,61.0,57.0,-100.00,ESE,121,2.0,6.0,88,-99.99,,,0.00,0.000000,,2013-07-12 09:12:00,
2013-07-12 04:22:00,61.0,57.0,-100.00,ESE,121,2.0,6.0,88,-99.99,,,0.00,0.000000,,2013-07-12 09:22:00,
2013-07-12 04:32:00,61.0,57.0,-100.00,ESE,121,2.0,6.0,88,-99.99,,,0.00,0.000000,,2013-07-12 09:32:00,
2013-07-12 04:43:00,61.0,57.0,-100.00,ESE,121,2.0,6.0,88,-99.99,,,0.00,0.000000,,2013-07-12 09:43:00,
2013-07-12 05:11:00,58.0,55.0,-100.00,SW,218,2.0,3.0,91,0.00,,,0.00,0.000000,,2013-07-12 10:11:00,
2013-07-12 05:22:00,58.0,55.0,-100.00,SW,218,2.0,3.0,91,0.00,,,0.00,0.000000,,2013-07-12 10:22:00,
2013-07-12 05:33:00,58.0,55.0,-100.00,SW,218,2.0,3.0,91,0.00,,,0.00,0.000000,,2013-07-12 10:33:00,
2013-07-12 05:42:00,58.0,55.0,-100.00,SW,218,2.0,3.0,91,0.00,,,0.00,0.000000,,2013-07-12 10:42:00,
2013-07-12 06:12:00,55.0,54.0,-100.00,South,175,2.0,3.0,95,0.00,,,0.00,3.000000,,2013-07-12 11:12:00,
2013-07-12 06:22:00,55.0,54.0,-100.00,South,175,2.0,3.0,95,0.00,,,0.00,3.000000,,2013-07-12 11:22:00,
2013-07-12 06:32:00,55.0,54.0,-100.00,South,175,2.0,3.0,95,0.00,,,0.00,3.000000,,2013-07-12 11:32:00,
2013-07-12 06:43:00,55.0,54.0,-100.00,South,175,2.0,3.0,95,0.00,,,0.00,3.000000,,2013-07-12 11:43:00,
2013-07-12 07:11:00,63.0,59.0,-100.00,South,174,2.0,5.0,86,0.00,,,0.00,73.000000,,2013-07-12 12:11:00,
2013-07-12 07:22:00,63.0,59.0,-100.00,South,174,2.0,5.0,86,0.00,,,0.00,73.000000,,2013-07-12 12:22:00,
2013-07-12 07:32:00,63.0,59.0,-100.00,South,174,2.0,5.0,86,0.00,,,0.00,73.000000,,2013-07-12 12:32:00,
2013-07-12 07:43:00,63.0,59.0,-100.00,South,174,2.0,5.0,86,0.00,,,0.00,73.000000,,2013-07-12 12:43:00,
2013-07-12 08:12:00,65.0,59.0,-100.00,SSE,157,3.0,6.0,82,0.00,,,0.00,135.000000,,2013-07-12 13:12:00,
2013-07-12 08:22:00,65.0,59.0,-100.00,SSE,157,3.0,6.0,82,0.00,,,0.00,135.000000,,2013-07-12 13:22:00,
2013-07-12 08:32:00,65.0,59.0,-100.00,SSE,157,3.0,6.0,82,0.00,,,0.00,135.000000,,2013-07-12 13:32:00,
2013-07-12 08:43:00,65.0,59.0,-100.00,SSE,157,3.0,6.0,82,0.00,,,0.00,135.000000,,2013-07-12 13:43:00,
2013-07-12 09:11:00,71.0,59.0,-100.00,SSW,199,5.0,9.0,67,0.00,,,0.00,343.000000,,2013-07-12 14:11:00,
2013-07-12 09:22:00,71.0,59.0,-100.00,SSW,199,5.0,9.0,67,0.00,,,0.00,343.000000,,2013-07-12 14:22:00,
2013-07-12 09:32:00,71.0,59.0,-100.00,SSW,199,5.0,9.0,67,0.00,,,0.00,343.000000,,2013-07-12 14:32:00,
2013-07-12 09:44:00,71.0,59.0,-100.00,SSW,199,5.0,9.0,67,0.00,,,0.00,343.000000,,2013-07-12 14:44:00,
2013-07-12 10:11:00,77.0,59.0,-100.00,South,186,7.0,12.0,54,0.00,,,0.00,593.000000,,2013-07-12 15:11:00,
2013-07-12 10:22:00,77.0,59.0,-100.00,South,186,7.0,12.0,54,0.00,,,0.00,593.000000,,2013-07-12 15:22:00,
2013-07-12 10:33:00,77.0,59.0,-100.00,South,186,7.0,12.0,54,0.00,,,0.00,593.000000,,2013-07-12 15:33:00,
2013-07-12 10:43:00,77.0,59.0,-100.00,South,186,7.0,12.0,54,0.00,,,0.00,593.000000,,2013-07-12 15:43:00,
2013-07-12 11:11:00,80.0,55.0,-100.00,South,187,8.0,17.0,43,0.00,,,0.00,752.000000,,2013-07-12 16:11:00,
2013-07-12 11:22:00,80.0,55.0,-100.00,South,187,8.0,17.0,43,0.00,,,0.00,752.000000,,2013-07-12 16:22:00,
2013-07-12 11:32:00,80.0,55.0,-100.00,South,187,8.0,17.0,43,0.00,,,0.00,752.000000,,2013-07-12 16:32:00,
2013-07-12 11:43:00,80.0,55.0,-100.00,South,187,8.0,17.0,43,0.00,,,0.00,752.000000,,2013-07-12 16:43:00,
2013-07-12 12:14:00,83.0,55.0,-100.00,SSW,197,11.0,20.0,39,0.00,,,0.00,851.000000,,2013-07-12 17:14:00,
2013-07-12 12:24:00,83.0,55.0,-100.00,SSW,197,11.0,20.0,39,0.00,,,0.00,851.000000,,2013-07-12 17:24:00,
2013-07-12 12:45:00,83.0,55.0,-100.00,SSW,197,11.0,20.0,39,0.00,,,0.00,851.000000,,2013-07-12 17:45:00,
2013-07-12 12:48:00,84.0,55.0,-100.00,South,184,8.0,20.0,37,0.00,,,0.00,929.000000,,2013-07-12 17:48:00,
2013-07-12 13:14:00,84.0,55.0,-100.00,South,184,8.0,20.0,37,0.00,,,0.00,929.000000,,2013-07-12 18:14:00,
2013-07-12 13:34:00,84.0,55.0,-100.00,South,184,8.0,20.0,37,0.00,,,0.00,929.000000,,2013-07-12 18:34:00,
2013-07-12 14:15:00,85.0,53.0,-100.00,South,179,9.0,15.0,34,0.00,,,0.00,947.000000,,2013-07-12 19:15:00,
2013-07-12 14:33:00,85.0,53.0,-100.00,South,179,9.0,15.0,34,0.00,,,0.00,947.000000,,2013-07-12 19:33:00,
2013-07-12 14:46:00,85.0,53.0,-100.00,South,179,9.0,15.0,34,0.00,,,0.00,947.000000,,2013-07-12 19:46:00,
2013-07-12 15:13:00,85.0,52.0,-100.00,South,187,8.0,16.0,32,0.00,,,0.00,907.000000,,2013-07-12 20:13:00,
2013-07-12 15:24:00,85.0,52.0,-100.00,South,187,8.0,16.0,32,0.00,,,0.00,907.000000,,2013-07-12 20:24:00,
2013-07-12 15:34:00,85.0,52.0,-100.00,South,187,8.0,16.0,32,0.00,,,0.00,907.000000,,2013-07-12 20:34:00,
2013-07-12 15:45:00,85.0,52.0,-100.00,South,187,8.0,16.0,32,0.00,,,0.00,907.000000,,2013-07-12 20:45:00,
2013-07-12 16:15:00,86.0,54.0,-100.00,SSW,192,10.0,20.0,33,0.00,,,0.00,810.000000,,2013-07-12 21:15:00,
2013-07-12 16:25:00,86.0,54.0,-100.00,SSW,192,10.0,20.0,33,0.00,,,0.00,810.000000,,2013-07-12 21:25:00,
2013-07-12 16:35:00,86.0,54.0,-100.00,SSW,192,10.0,20.0,33,0.00,,,0.00,810.000000,,2013-07-12 21:35:00,
2013-07-12 16:46:00,86.0,54.0,-100.00,SSW,192,10.0,20.0,33,0.00,,,0.00,810.000000,,2013-07-12 21:46:00,
2013-07-12 17:17:00,86.0,54.0,-100.00,SSW,194,8.0,18.0,34,0.00,,,0.00,690.000000,,2013-07-12 22:17:00,
2013-07-12 17:24:00,86.0,54.0,-100.00,SSW,194,8.0,18.0,34,0.00,,,0.00,690.000000,,2013-07-12 22:24:00,
2013-07-12 17:33:00,86.0,54.0,-100.00,SSW,194,8.0,18.0,34,0.00,,,0.00,690.000000,,2013-07-12 22:33:00,
2013-07-12 17:44:00,86.0,54.0,-100.00,SSW,194,8.0,18.0,34,0.00,,,0.00,690.000000,,2013-07-12 22:44:00,
2013-07-12 18:25:00,84.0,55.0,-100.00,South,171,6.0,15.0,37,0.00,,,0.00,466.000000,,2013-07-12 23:25:00,
2013-07-12 18:35:00,84.0,55.0,-100.00,South,171,6.0,15.0,37,0.00,,,0.00,466.000000,,2013-07-12 23:35:00,
2013-07-12 18:43:00,84.0,55.0,-100.00,South,171,6.0,15.0,37,0.00,,,0.00,466.000000,,2013-07-12 23:43:00,
2013-07-12 19:17:00,84.0,56.0,-100.00,South,186,7.0,16.0,39,0.00,,,0.00,349.000000,,2013-07-13 00:17:00,
2013-07-12 19:25:00,84.0,56.0,-100.00,South,186,7.0,16.0,39,0.00,,,0.00,349.000000,,2013-07-13 00:25:00,
2013-07-12 19:33:00,84.0,56.0,-100.00,South,186,7.0,16.0,39,0.00,,,0.00,349.000000,,2013-07-13 00:33:00,
2013-07-12 20:13:00,81.0,56.0,-100.00,South,184,4.0,12.0,43,0.00,,,0.00,170.000000,,2013-07-13 01:13:00,
2013-07-12 20:24:00,81.0,56.0,-100.00,South,184,4.0,12.0,43,0.00,,,0.00,170.000000,,2013-07-13 01:24:00,
2013-07-12 20:37:00,81.0,56.0,-100.00,South,184,4.0,12.0,43,0.00,,,0.00,170.000000,,2013-07-13 01:37:00,
2013-07-12 21:14:00,76.0,57.0,-100.00,SSE,159,3.0,6.0,52,0.00,,,0.00,34.000000,,2013-07-13 02:14:00,
2013-07-12 21:36:00,76.0,57.0,-100.00,SSE,159,3.0,6.0,52,0.00,,,0.00,34.000000,,2013-07-13 02:36:00,
2013-07-12 21:46:00,76.0,57.0,-100.00,SSE,159,3.0,6.0,52,0.00,,,0.00,34.000000,,2013-07-13 02:46:00,
2013-07-12 22:13:00,73.0,57.0,-100.00,SSE,154,3.0,5.0,58,0.00,,,0.00,0.000000,,2013-07-13 03:13:00,
2013-07-12 22:27:00,73.0,57.0,-100.00,SSE,154,3.0,5.0,58,0.00,,,0.00,0.000000,,2013-07-13 03:27:00,
2013-07-12 22:37:00,73.0,57.0,-100.00,SSE,154,3.0,5.0,58,0.00,,,0.00,0.000000,,2013-07-13 03:37:00,
2013-07-12 22:45:00,73.0,57.0,-100.00,SSE,154,3.0,5.0,58,0.00,,,0.00,0.000000,,2013-07-13 03:45:00,
2013-07-12 23:12:00,70.0,59.0,-100.00,SSE,155,3.0,5.0,68,0.00,,,0.00,0.000000,,2013-07-13 04:12:00,
2013-07-12 23:22:00,70.0,59.0,-100.00,SSE,155,3.0,5.0,68,0.00,,,0.00,0.000000,,2013-07-13 04:22:00,
2013-07-12 23:32:00,70.0,59.0,-100.00,SSE,155,3.0,5.0,68,0.00,,,0.00,0.000000,,2013-07-13 04:32:00,
2013-07-12 23:43:00,70.0,59.0,-100.00,SSE,155,3.0,5.0,68,0.00,,,0.00,0.000000,,2013-07-13 04:43:00,